Huvudsida
METAR-TAF:

METAR-TAF

Flygplatser :

Sjeremetevos internationella flygplats

Moskva-Sjeremetievo, Ryssland

latitud: 55-58N, longitud: 037-25E, höjd: 190 m

Aktuellt väderrapport

Denna rapport gjordes för 17 minuter sedan, klockan 15:30 UTC
Vind 8 kt från syd/sydost
Temperatur 20°C
Fuktighet 56%
Tryck 1024 hPa
Sikt 10 km eller mer
Brutna moln på en höjd av 4500 ft

METAR: UUEE 221530Z 16004MPS 9999 BKN045 20/11 Q1024 R06C/CLRD62 R06R/CLRD62 NOSIG

Tid: 18:47 (15:47 UTC)

Väderprognos

Denna rapport gjordes för 1 timme och 45 minuter sedan, klockan 14:02 UTC
Prognos gäller från 22 kl. 15 UTC till 23 kl. 15 UTC
Vind 12 kt från sydost i byarna ända upp till 25 kt
Sikt 10 km eller mer
Spridda moln på en höjd av 3000 ft
Blir
från 22 kl. 18 UTC till 22 kl. 20 UTC
Vind 2 kt varierande vindriktning
Blir
från 23 kl. 05 UTC till 23 kl. 06 UTC
Vind 10 kt från väst/sydväst

TAF: UUEE 221402Z 2215/2315 14006G13MPS 9999 SCT030 TX22/2312Z TN07/2302Z BECMG 2218/2220 VRB01MPS BECMG 2305/2306 24005MPS

Aktuella väderrapporter och prognoser från 4000 flygplatser (METAR- och TAF-rapporter).

De tillgängliga stationerna syns som gula och röda prickar på kartan.

För musen över prickarna för att se namnen på stationerna.

Klicka sedan för att få väderrapporter och prognoser.

För att ändra kartan: Klicka på de gröna knapparna med ett svart kors på för att zooma in; den gröna knappen med ett streck på för att zooma ut; eller på de gröna pilarna för angränsande kartor.


METAR-TAF: